Time;durP1;ratioP1;P1;durP2;ratioP2;P2;SDS_P1;SDS_P2;PMS_P1;PMS_P2;Temp;Humidity;BMP_temperature;BMP_pressure;BME280_temperature;BME280_humidity;BME280_pressure;Samples;Min_cycle;Max_cycle;Signal;HPM_P1;HPM_P2
2021/04/28 00:00:26;;;;;;;13.05;10.52;;;12.40;99.90;;;;;;5093383;28;20463;-53
2021/04/28 00:02:53;;;;;;;14.65;10.00;;;12.20;99.90;;;;;;5091058;28;20040;-56
2021/04/28 00:05:19;;;;;;;13.38;10.27;;;12.00;99.90;;;;;;5090865;28;20036;-52
2021/04/28 00:07:45;;;;;;;15.77;10.07;;;12.00;99.90;;;;;;4988010;28;20041;-53
2021/04/28 00:10:13;;;;;;;17.70;11.40;;;12.00;99.90;;;;;;5092221;28;20028;-54
2021/04/28 00:12:39;;;;;;;13.73;10.18;;;11.90;99.90;;;;;;5057073;28;20052;-53
2021/04/28 00:15:17;;;;;;;14.38;9.68;;;11.90;99.90;;;;;;5093006;28;20032;-55
2021/04/28 00:17:44;;;;;;;15.98;10.18;;;12.00;99.90;;;;;;5088038;28;20043;-56
2021/04/28 00:20:12;;;;;;;15.85;10.57;;;12.00;99.90;;;;;;5074105;28;20021;-52
2021/04/28 00:22:39;;;;;;;13.50;9.95;;;12.00;99.90;;;;;;5030062;28;20064;-53
2021/04/28 00:25:07;;;;;;;13.45;10.07;;;11.90;99.90;;;;;;5035578;28;20040;-55
2021/04/28 00:27:34;;;;;;;14.20;10.25;;;11.70;99.90;;;;;;5017259;28;20045;-50
2021/04/28 00:30:01;;;;;;;16.17;11.05;;;11.80;99.90;;;;;;5050563;28;20036;-59
2021/04/28 00:32:26;;;;;;;15.98;10.90;;;11.70;99.90;;;;;;5033673;28;20044;-49
2021/04/28 00:34:52;;;;;;;14.13;10.30;;;11.80;99.90;;;;;;5033506;28;20029;-49
2021/04/28 00:37:18;;;;;;;16.67;10.57;;;12.10;99.90;;;;;;5033752;28;20400;-56
2021/04/28 00:39:44;;;;;;;15.18;9.77;;;12.20;99.90;;;;;;5050445;28;20541;-47
2021/04/28 00:42:10;;;;;;;14.02;10.35;;;12.30;99.90;;;;;;5053842;28;20064;-51
2021/04/28 00:44:36;;;;;;;16.70;10.43;;;12.30;99.90;;;;;;5053954;28;20028;-52
2021/04/28 00:47:01;;;;;;;17.08;10.43;;;12.50;99.90;;;;;;5054071;28;20408;-57
2021/04/28 00:49:27;;;;;;;14.18;9.90;;;12.50;99.90;;;;;;5053837;28;20082;-52
2021/04/28 00:51:54;;;;;;;16.33;11.02;;;12.50;99.90;;;;;;5038695;28;20047;-51
2021/04/28 00:54:28;;;;;;;15.43;10.15;;;12.60;99.90;;;;;;5119058;27;20070;-57
2021/04/28 00:56:56;;;;;;;14.45;10.43;;;12.60;99.90;;;;;;5116548;28;20039;-54
2021/04/28 00:59:22;;;;;;;15.02;10.20;;;12.50;99.90;;;;;;5116620;28;20092;-51
2021/04/28 01:01:48;;;;;;;13.25;9.77;;;12.60;99.90;;;;;;5116505;27;20047;-57
2021/04/28 01:04:16;;;;;;;14.52;10.27;;;12.70;99.90;;;;;;5117012;28;20051;-52
2021/04/28 01:06:44;;;;;;;15.32;10.68;;;12.70;99.90;;;;;;5103553;28;20047;-52
2021/04/28 01:09:12;;;;;;;14.25;10.90;;;12.70;99.90;;;;;;5098456;28;20466;-53
2021/04/28 01:11:39;;;;;;;14.55;10.50;;;12.60;99.90;;;;;;5096152;28;20448;-54
2021/04/28 01:14:06;;;;;;;14.52;10.32;;;12.70;99.90;;;;;;5095814;28;20178;-55
2021/04/28 01:16:32;;;;;;;15.60;11.07;;;12.70;99.90;;;;;;5095361;28;20177;-53
2021/04/28 01:18:58;;;;;;;14.40;10.27;;;12.70;99.90;;;;;;5095328;28;20027;-48
2021/04/28 01:21:24;;;;;;;14.02;10.43;;;12.60;99.90;;;;;;5093162;28;20379;-52
2021/04/28 01:23:50;;;;;;;14.57;10.30;;;12.60;99.90;;;;;;5110014;28;20031;-50
2021/04/28 01:26:20;;;;;;;16.15;10.30;;;12.70;99.90;;;;;;5094885;28;20035;-52
2021/04/28 01:28:48;;;;;;;15.75;11.55;;;12.70;99.90;;;;;;5092679;28;20554;-52
2021/04/28 01:31:15;;;;;;;14.98;10.82;;;12.80;99.90;;;;;;5096072;28;20020;-53
2021/04/28 01:33:47;;;;;;;17.30;11.60;;;12.50;99.90;;;;;;5095428;28;20028;-54
2021/04/28 01:36:19;;;;;;;16.50;12.00;;;12.50;99.90;;;;;;5108463;28;20085;-50
2021/04/28 01:38:46;;;;;;;;;;;12.60;99.90;;;;;;5116433;28;20040;-48
2021/04/28 01:41:13;;;;;;;18.90;10.88;;;12.50;99.90;;;;;;5115405;27;20362;-54
2021/04/28 01:43:41;;;;;;;14.43;10.65;;;12.50;99.90;;;;;;5108004;28;20456;-58
2021/04/28 01:46:09;;;;;;;16.23;10.63;;;12.50;99.90;;;;;;5109582;28;20438;-52
2021/04/28 01:48:37;;;;;;;17.67;11.82;;;12.40;99.90;;;;;;5092469;28;20030;-58
2021/04/28 01:51:03;;;;;;;16.23;11.30;;;12.50;99.90;;;;;;5092963;28;20052;-53
2021/04/28 01:53:30;;;;;;;17.00;11.65;;;12.50;99.90;;;;;;5095632;28;20052;-56
2021/04/28 01:55:57;;;;;;;16.48;10.95;;;12.50;99.90;;;;;;5094893;28;20129;-55
2021/04/28 01:58:24;;;;;;;17.40;10.73;;;12.40;99.90;;;;;;5095309;28;20093;-55
2021/04/28 02:00:51;;;;;;;13.00;9.23;;;12.40;99.90;;;;;;5094983;28;20425;-54
2021/04/28 02:03:20;;;;;;;13.40;9.38;;;12.50;99.90;;;;;;5095153;28;20518;-50
2021/04/28 02:05:45;;;;;;;13.52;8.45;;;12.60;99.90;;;;;;5092562;28;20491;-52
2021/04/28 02:08:11;;;;;;;15.02;11.10;;;12.60;99.90;;;;;;5061995;28;20131;-50
2021/04/28 02:10:37;;;;;;;18.83;11.93;;;12.60;99.90;;;;;;5095062;28;20375;-50
2021/04/28 02:13:03;;;;;;;15.95;11.63;;;12.80;99.90;;;;;;5094690;28;20044;-54
2021/04/28 02:15:30;;;;;;;17.63;11.38;;;12.80;99.90;;;;;;5094662;28;20392;-48
2021/04/28 02:17:59;;;;;;;17.52;11.52;;;12.70;99.90;;;;;;5094676;28;20153;-53
2021/04/28 02:20:25;;;;;;;17.35;11.38;;;12.70;99.90;;;;;;5094543;28;20023;-50
2021/04/28 02:22:52;;;;;;;22.20;12.63;;;12.70;99.90;;;;;;5094605;28;20016;-52
2021/04/28 02:25:18;;;;;;;16.50;11.77;;;12.80;99.90;;;;;;5115889;27;20470;-54
2021/04/28 02:27:43;;;;;;;16.85;11.00;;;12.80;99.90;;;;;;5112375;28;20036;-52
2021/04/28 02:30:12;;;;;;;17.35;11.02;;;12.80;99.90;;;;;;5112623;28;20455;-54
2021/04/28 02:32:38;;;;;;;15.50;11.05;;;12.70;99.90;;;;;;5044834;28;20062;-51
2021/04/28 02:35:05;;;;;;;17.33;10.75;;;12.70;99.90;;;;;;5112410;28;20510;-52
2021/04/28 02:37:32;;;;;;;16.65;11.20;;;12.70;99.90;;;;;;5078173;28;20059;-53
2021/04/28 02:40:08;;;;;;;20.05;11.80;;;12.60;99.90;;;;;;5112117;28;20035;-57
2021/04/28 02:42:35;;;;;;;17.95;11.10;;;12.60;99.90;;;;;;5112164;28;20638;-60
2021/04/28 02:45:03;;;;;;;13.98;10.10;;;12.70;99.90;;;;;;5112247;28;20032;-51
2021/04/28 02:47:30;;;;;;;17.63;11.23;;;12.70;99.90;;;;;;5044944;28;20433;-56
2021/04/28 02:49:56;;;;;;;15.50;10.40;;;12.70;99.90;;;;;;5112133;28;20065;-49
2021/04/28 02:52:24;;;;;;;12.65;8.98;;;12.80;99.90;;;;;;5111982;28;20019;-47
2021/04/28 02:54:50;;;;;;;10.82;8.48;;;12.70;99.90;;;;;;5111946;28;20102;-51
2021/04/28 02:57:19;;;;;;;14.75;9.52;;;12.50;99.90;;;;;;5112037;28;20023;-52
2021/04/28 02:59:46;;;;;;;11.27;8.73;;;12.40;99.90;;;;;;5114003;28;20089;-52
2021/04/28 03:02:12;;;;;;;13.60;8.20;;;12.50;99.90;;;;;;5113883;28;20412;-50
2021/04/28 03:04:40;;;;;;;11.90;8.02;;;12.50;99.90;;;;;;5113539;28;20032;-51
2021/04/28 03:07:10;;;;;;;13.05;8.38;;;12.40;99.90;;;;;;5111011;27;20040;-55
2021/04/28 03:09:36;;;;;;;10.00;7.43;;;12.40;99.90;;;;;;5093615;28;20027;-56
2021/04/28 03:12:03;;;;;;;13.73;8.55;;;12.50;99.90;;;;;;5091489;28;20031;-50
2021/04/28 03:14:28;;;;;;;13.50;8.02;;;12.50;99.90;;;;;;5057511;28;20494;-56
2021/04/28 03:16:55;;;;;;;10.18;7.82;;;12.50;99.90;;;;;;5097372;28;20023;-54
2021/04/28 03:19:22;;;;;;;12.50;7.95;;;12.60;99.90;;;;;;5113976;28;20493;-56
2021/04/28 03:21:49;;;;;;;19.88;12.13;;;12.60;99.90;;;;;;5093001;28;20025;-56
2021/04/28 03:24:16;;;;;;;12.43;8.95;;;12.60;99.90;;;;;;5073420;28;20033;-50
2021/04/28 03:26:42;;;;;;;12.10;8.98;;;12.60;99.90;;;;;;5070657;28;20040;-51
2021/04/28 03:29:08;;;;;;;12.07;8.65;;;12.60;99.90;;;;;;5053824;28;20036;-51
2021/04/28 03:31:34;;;;;;;12.07;8.88;;;12.50;99.90;;;;;;5070696;28;20135;-52
2021/04/28 03:34:00;;;;;;;13.93;9.88;;;12.40;99.90;;;;;;5071045;28;20424;-57
2021/04/28 03:36:26;;;;;;;10.95;8.23;;;12.50;99.90;;;;;;5070905;28;20024;-54
2021/04/28 03:38:52;;;;;;;12.25;9.00;;;12.50;99.90;;;;;;5020661;28;20154;-54
2021/04/28 03:41:18;;;;;;;13.32;8.90;;;12.40;99.90;;;;;;5070972;28;20032;-56
2021/04/28 03:43:44;;;;;;;14.73;8.93;;;12.40;99.90;;;;;;5070837;28;20522;-57
2021/04/28 03:46:10;;;;;;;16.73;8.63;;;12.40;99.90;;;;;;5070449;28;20541;-49
2021/04/28 03:48:37;;;;;;;12.73;8.85;;;12.50;99.90;;;;;;5070573;28;20036;-56
2021/04/28 03:51:03;;;;;;;12.02;8.52;;;12.40;99.90;;;;;;5070694;28;20486;-51
2021/04/28 03:53:29;;;;;;;12.63;8.70;;;12.50;99.90;;;;;;5020618;28;20375;-49
2021/04/28 03:55:55;;;;;;;13.30;8.48;;;12.50;99.90;;;;;;5070744;28;20554;-49
2021/04/28 03:58:21;;;;;;;12.82;8.55;;;12.30;99.90;;;;;;5020848;28;20040;-55
2021/04/28 04:00:47;;;;;;;13.43;9.60;;;12.20;99.90;;;;;;5073991;28;20029;-55
2021/04/28 04:03:14;;;;;;;14.02;9.43;;;12.30;99.90;;;;;;5111552;28;20393;-51
2021/04/28 04:05:40;;;;;;;12.00;8.85;;;12.30;99.90;;;;;;5105802;28;20051;-55
2021/04/28 04:08:05;;;;;;;14.43;9.45;;;12.40;99.90;;;;;;5087475;28;20447;-55
2021/04/28 04:10:31;;;;;;;14.68;10.27;;;12.30;99.90;;;;;;5090907;28;20040;-50
2021/04/28 04:12:57;;;;;;;16.88;10.85;;;12.20;99.90;;;;;;5090747;28;20048;-52
2021/04/28 04:15:23;;;;;;;15.40;9.93;;;12.30;99.90;;;;;;5056429;28;20040;-50
2021/04/28 04:17:49;;;;;;;16.00;11.05;;;12.30;99.90;;;;;;5074433;28;20127;-57
2021/04/28 04:20:14;;;;;;;13.93;10.32;;;12.30;99.90;;;;;;5086348;28;20481;-46
2021/04/28 04:22:40;;;;;;;14.55;11.32;;;12.40;99.90;;;;;;5111793;28;20039;-54
2021/04/28 04:25:07;;;;;;;14.02;10.13;;;12.50;99.90;;;;;;5027343;28;20040;-55
2021/04/28 04:27:34;;;;;;;14.43;10.00;;;12.50;99.90;;;;;;5061240;28;20105;-56
2021/04/28 04:30:01;;;;;;;16.10;10.45;;;12.60;99.90;;;;;;5111620;28;20038;-52
2021/04/28 04:32:27;;;;;;;15.43;10.15;;;12.50;99.90;;;;;;5091651;28;20040;-53
2021/04/28 04:34:53;;;;;;;14.98;10.20;;;12.30;99.90;;;;;;5096475;28;20025;-60
2021/04/28 04:37:18;;;;;;;13.57;9.35;;;12.30;99.90;;;;;;5100092;28;20406;-54
2021/04/28 04:39:44;;;;;;;15.63;10.93;;;12.40;99.90;;;;;;5132243;27;20031;-55
2021/04/28 04:42:11;;;;;;;15.18;9.68;;;12.20;99.90;;;;;;5117407;28;20035;-56
2021/04/28 04:44:38;;;;;;;14.32;10.00;;;12.20;99.90;;;;;;5114575;28;20035;-50
2021/04/28 04:47:04;;;;;;;13.88;9.43;;;12.20;99.90;;;;;;5096190;28;20073;-55
2021/04/28 04:49:29;;;;;;;15.10;9.98;;;12.30;99.90;;;;;;5099273;28;20412;-51
2021/04/28 04:51:55;;;;;;;14.13;10.00;;;12.40;99.90;;;;;;5081888;28;20128;-59
2021/04/28 04:54:21;;;;;;;16.23;10.32;;;12.50;99.90;;;;;;5078433;28;20051;-50
2021/04/28 04:56:47;;;;;;;14.45;9.80;;;12.60;99.90;;;;;;5096859;28;20024;-58
2021/04/28 04:59:14;;;;;;;14.57;10.82;;;12.60;99.90;;;;;;5110872;27;20058;-56
2021/04/28 05:01:40;;;;;;;19.10;11.23;;;12.60;99.90;;;;;;5094667;28;20027;-52
2021/04/28 05:04:05;;;;;;;18.77;12.35;;;12.20;99.90;;;;;;5094695;28;20032;-49
2021/04/28 05:06:31;;;;;;;18.92;11.63;;;12.30;99.90;;;;;;5059322;28;20097;-52
2021/04/28 05:08:57;;;;;;;16.20;11.05;;;12.50;99.90;;;;;;5096052;28;20435;-56
2021/04/28 05:11:23;;;;;;;15.20;9.95;;;12.60;99.90;;;;;;5084357;28;20028;-47
2021/04/28 05:13:48;;;;;;;16.67;9.98;;;12.40;99.90;;;;;;5075556;28;20553;-49
2021/04/28 05:16:14;;;;;;;14.70;10.15;;;12.30;99.90;;;;;;5095815;28;20683;-52
2021/04/28 05:18:40;;;;;;;16.05;9.15;;;12.30;99.90;;;;;;5110566;28;20086;-48
2021/04/28 05:21:06;;;;;;;15.48;10.43;;;12.50;99.90;;;;;;5095668;28;20047;-48
2021/04/28 05:23:32;;;;;;;14.48;9.40;;;12.50;99.90;;;;;;5096015;28;20107;-50
2021/04/28 05:25:58;;;;;;;18.10;9.75;;;12.40;99.90;;;;;;5108197;28;20471;-50
2021/04/28 05:28:23;;;;;;;14.43;9.93;;;12.40;99.90;;;;;;5131046;27;20038;-55
2021/04/28 05:30:49;;;;;;;13.02;9.52;;;12.50;99.90;;;;;;5106601;28;20699;-51
2021/04/28 05:33:15;;;;;;;12.95;9.65;;;12.40;99.90;;;;;;5095133;28;20042;-52
2021/04/28 05:35:40;;;;;;;14.10;10.00;;;12.20;99.90;;;;;;5097785;28;20348;-53
2021/04/28 05:38:06;;;;;;;18.88;10.25;;;12.10;99.90;;;;;;5085700;28;20067;-52
2021/04/28 05:40:32;;;;;;;15.98;10.23;;;12.20;99.90;;;;;;5114805;28;20049;-51
2021/04/28 05:42:58;;;;;;;16.42;10.43;;;12.30;99.90;;;;;;5109001;28;20523;-49
2021/04/28 05:45:24;;;;;;;14.38;9.68;;;12.40;99.90;;;;;;5108789;28;20040;-47
2021/04/28 05:47:50;;;;;;;16.25;10.75;;;12.60;99.90;;;;;;5094398;28;20339;-49
2021/04/28 05:50:18;;;;;;;15.63;10.27;;;12.70;99.90;;;;;;5093812;28;20028;-49
2021/04/28 05:52:44;;;;;;;17.52;11.15;;;12.70;99.90;;;;;;5093982;28;20028;-52
2021/04/28 05:55:11;;;;;;;16.60;10.73;;;12.60;99.90;;;;;;5095232;28;20028;-55
2021/04/28 05:57:38;;;;;;;16.67;10.70;;;12.90;99.90;;;;;;5092978;28;20050;-49
2021/04/28 06:00:12;;;;;;;16.70;10.55;;;12.90;99.90;;;;;;5094849;28;20032;-48
2021/04/28 06:02:39;;;;;;;18.17;12.95;;;12.80;99.90;;;;;;5095255;28;20020;-54
2021/04/28 06:05:06;;;;;;;16.70;11.13;;;12.80;99.90;;;;;;5094986;28;20024;-52
2021/04/28 06:07:32;;;;;;;18.90;11.93;;;12.90;99.90;;;;;;5092715;28;20036;-51
2021/04/28 06:09:58;;;;;;;16.80;10.20;;;12.90;99.90;;;;;;5094997;28;20034;-49
2021/04/28 06:12:24;;;;;;;17.83;11.52;;;13.00;99.90;;;;;;5109188;28;20405;-52
2021/04/28 06:14:49;;;;;;;17.85;11.00;;;12.90;99.90;;;;;;5094023;28;20123;-52
2021/04/28 06:17:15;;;;;;;18.65;12.13;;;13.10;99.90;;;;;;5109423;28;20035;-49
2021/04/28 06:19:42;;;;;;;21.10;12.63;;;12.90;99.90;;;;;;5109062;28;20036;-49
2021/04/28 06:22:07;;;;;;;18.17;11.70;;;12.80;99.90;;;;;;5094136;28;20035;-50
2021/04/28 06:24:33;;;;;;;19.40;12.27;;;12.90;99.90;;;;;;5093899;28;20023;-51
2021/04/28 06:26:59;;;;;;;23.35;13.68;;;12.90;99.90;;;;;;5088587;28;20572;-51
2021/04/28 06:29:25;;;;;;;22.33;13.65;;;13.00;99.90;;;;;;5094013;28;20028;-48
2021/04/28 06:31:51;;;;;;;17.05;11.68;;;12.60;99.90;;;;;;5109483;28;20494;-46
2021/04/28 06:34:16;;;;;;;18.42;11.80;;;12.70;99.90;;;;;;5094331;28;20038;-49
2021/04/28 06:36:42;;;;;;;17.80;11.85;;;12.20;99.90;;;;;;5108414;28;20028;-50
2021/04/28 06:39:08;;;;;;;20.65;13.23;;;12.00;99.90;;;;;;5108769;28;20028;-52
2021/04/28 06:41:34;;;;;;;23.98;12.65;;;12.10;99.90;;;;;;5108493;28;20554;-53
2021/04/28 06:43:59;;;;;;;21.67;13.32;;;12.20;99.90;;;;;;5093789;28;20038;-50
2021/04/28 06:46:25;;;;;;;20.73;12.68;;;12.50;99.90;;;;;;5091615;28;20078;-50
2021/04/28 06:48:51;;;;;;;24.27;13.32;;;12.80;99.90;;;;;;5091277;28;20047;-49
2021/04/28 06:51:17;;;;;;;17.70;11.60;;;12.70;99.90;;;;;;5093327;28;20031;-48
2021/04/28 06:53:43;;;;;;;14.10;10.95;;;12.70;99.90;;;;;;5091431;28;20424;-48
2021/04/28 06:56:08;;;;;;;21.35;12.05;;;13.20;99.90;;;;;;5072396;28;20094;-49
2021/04/28 06:58:34;;;;;;;18.60;11.95;;;13.00;99.90;;;;;;5090655;28;20475;-47
2021/04/28 07:01:00;;;;;;;18.88;11.80;;;13.10;99.90;;;;;;5094455;28;20035;-53
2021/04/28 07:03:26;;;;;;;16.27;11.32;;;12.80;99.90;;;;;;5093393;28;20024;-47
2021/04/28 07:05:52;;;;;;;16.95;12.10;;;12.70;99.90;;;;;;5092357;28;20042;-52
2021/04/28 07:08:18;;;;;;;19.85;12.00;;;12.80;99.90;;;;;;5091673;28;20107;-52
2021/04/28 07:10:44;;;;;;;18.92;11.82;;;12.70;99.90;;;;;;5092927;28;20162;-45
2021/04/28 07:13:10;;;;;;;17.40;11.65;;;12.50;99.90;;;;;;5093456;28;20111;-50
2021/04/28 07:15:35;;;;;;;16.80;11.25;;;12.30;99.90;;;;;;5093608;28;20528;-48
2021/04/28 07:18:03;;;;;;;16.25;11.73;;;12.60;99.90;;;;;;5041198;28;20044;-52
2021/04/28 07:20:29;;;;;;;19.63;12.27;;;12.50;99.90;;;;;;5093508;28;20149;-49
2021/04/28 07:22:55;;;;;;;18.15;11.95;;;12.70;99.90;;;;;;5093483;28;20026;-48
2021/04/28 07:25:21;;;;;;;21.35;13.55;;;12.80;99.90;;;;;;5093587;28;20024;-55
2021/04/28 07:27:47;;;;;;;27.80;17.00;;;12.70;99.90;;;;;;5093423;28;20034;-54
2021/04/28 07:30:15;;;;;;;24.52;15.07;;;13.10;99.90;;;;;;5093493;28;20042;-54
2021/04/28 07:32:41;;;;;;;20.83;12.90;;;13.20;99.90;;;;;;5057557;28;20502;-47
2021/04/28 07:35:08;;;;;;;21.40;13.27;;;13.30;99.90;;;;;;5093158;28;20016;-52
2021/04/28 07:37:35;;;;;;;21.38;13.10;;;13.30;99.90;;;;;;5057510;28;20043;-49
2021/04/28 07:40:01;;;;;;;22.17;13.38;;;13.30;99.90;;;;;;5108512;28;20032;-52
2021/04/28 07:42:26;;;;;;;19.45;12.88;;;13.30;99.90;;;;;;5093347;28;20419;-48
2021/04/28 07:44:53;;;;;;;24.83;14.10;;;;;;;;;;5095483;28;20051;-48
2021/04/28 07:47:18;;;;;;;24.45;13.70;;;13.80;99.90;;;;;;5091420;28;20079;-46
2021/04/28 07:49:44;;;;;;;22.83;14.02;;;14.00;99.90;;;;;;5059500;28;20062;-48
2021/04/28 07:52:10;;;;;;;20.25;13.50;;;14.30;99.90;;;;;;5061603;28;20509;-53
2021/04/28 07:54:36;;;;;;;22.65;13.18;;;14.50;99.90;;;;;;5120401;27;20032;-56
2021/04/28 07:57:04;;;;;;;20.85;13.13;;;14.60;99.90;;;;;;5109917;28;20042;-51
2021/04/28 07:59:30;;;;;;;25.33;14.48;;;;;;;;;;5100665;28;20044;-49
2021/04/28 08:01:56;;;;;;;22.60;13.75;;;;;;;;;;5097211;28;20026;-49
2021/04/28 08:04:22;;;;;;;24.48;13.70;;;;;;;;;;5111987;28;20059;-47
2021/04/28 08:06:49;;;;;;;23.38;13.95;;;15.40;99.90;;;;;;5097120;28;20036;-51
2021/04/28 08:09:14;;;;;;;25.50;14.70;;;15.70;99.90;;;;;;5097045;28;20024;-49
2021/04/28 08:11:41;;;;;;;24.05;13.82;;;;;;;;;;5027604;28;20088;-50
2021/04/28 08:14:07;;;;;;;19.85;13.35;;;;;;;;;;5097085;28;20049;-48
2021/04/28 08:16:34;;;;;;;26.92;15.32;;;;;;;;;;5111119;28;20532;-48
2021/04/28 08:19:01;;;;;;;22.35;13.10;;;;;;;;;;5111025;28;20521;-53
2021/04/28 08:21:27;;;;;;;23.90;14.32;;;15.90;99.90;;;;;;5096955;28;20060;-49
2021/04/28 08:23:53;;;;;;;25.83;14.13;;;15.90;99.90;;;;;;5097128;28;20482;-48
2021/04/28 08:26:19;;;;;;;24.02;14.32;;;15.90;99.90;;;;;;5087518;28;20031;-50
2021/04/28 08:28:46;;;;;;;23.23;14.65;;;15.70;99.90;;;;;;5096749;28;20039;-52
2021/04/28 08:31:15;;;;;;;23.63;14.05;;;15.70;99.90;;;;;;5094715;28;20059;-50
2021/04/28 08:33:42;;;;;;;30.55;16.08;;;15.70;99.90;;;;;;5096518;28;20050;-47
2021/04/28 08:36:08;;;;;;;25.08;14.68;;;15.60;99.90;;;;;;5096902;28;20069;-50
2021/04/28 08:38:35;;;;;;;28.35;15.02;;;15.40;99.90;;;;;;5096688;28;20123;-49
2021/04/28 08:41:02;;;;;;;23.60;14.15;;;15.50;99.90;;;;;;5096813;28;20039;-49
2021/04/28 08:43:28;;;;;;;27.25;13.38;;;15.70;99.90;;;;;;5096629;28;20086;-49
2021/04/28 08:45:55;;;;;;;41.97;19.85;;;15.80;99.90;;;;;;5095546;28;20486;-50
2021/04/28 08:48:21;;;;;;;38.55;18.08;;;15.80;99.90;;;;;;5096734;28;20107;-48
2021/04/28 08:50:48;;;;;;;29.40;16.58;;;15.80;99.90;;;;;;5096285;28;20546;-50
2021/04/28 08:53:16;;;;;;;27.33;15.07;;;15.90;99.90;;;;;;5096366;28;20034;-51
2021/04/28 08:55:42;;;;;;;30.45;16.75;;;15.90;99.90;;;;;;5096311;28;20017;-50
2021/04/28 08:58:09;;;;;;;30.33;16.92;;;15.70;99.90;;;;;;5096172;28;20028;-50
2021/04/28 09:00:35;;;;;;;28.25;15.93;;;15.60;99.90;;;;;;5095636;28;20025;-51
2021/04/28 09:03:01;;;;;;;25.75;15.82;;;15.40;99.90;;;;;;5093984;28;20119;-50
2021/04/28 09:05:31;;;;;;;23.02;14.32;;;15.60;99.90;;;;;;5096052;28;20103;-50
2021/04/28 09:07:57;;;;;;;25.15;15.45;;;15.60;99.90;;;;;;5110960;28;20044;-49
2021/04/28 09:10:25;;;;;;;26.95;16.88;;;15.70;99.90;;;;;;5096513;28;20016;-51
2021/04/28 09:13:04;;;;;;;28.80;15.13;;;15.70;99.90;;;;;;5095708;28;20048;-50
2021/04/28 09:15:31;;;;;;;26.35;16.30;;;15.80;99.90;;;;;;5095937;28;20028;-51
2021/04/28 09:17:57;;;;;;;28.52;16.50;;;15.70;99.90;;;;;;5095753;28;20024;-49
2021/04/28 09:20:29;;;;;;;29.75;17.08;;;15.70;99.90;;;;;;5110571;28;20043;-50
2021/04/28 09:23:08;;;;;;;29.60;18.75;;;15.70;99.90;;;;;;5095220;28;20061;-51
2021/04/28 09:25:41;;;;;;;29.08;17.92;;;15.70;99.90;;;;;;5095471;28;20054;-50
2021/04/28 09:28:21;;;;;;;24.92;16.23;;;15.70;99.90;;;;;;5095620;28;20040;-51
2021/04/28 09:30:48;;;;;;;25.63;16.70;;;15.70;99.90;;;;;;5095950;28;20036;-50
2021/04/28 09:33:14;;;;;;;34.85;19.60;;;15.70;99.90;;;;;;5110547;28;20109;-50
2021/04/28 09:35:40;;;;;;;31.88;18.88;;;15.90;99.90;;;;;;5093313;28;20459;-51
2021/04/28 09:38:06;;;;;;;30.30;18.08;;;15.90;99.90;;;;;;5094579;28;20040;-49
2021/04/28 09:40:49;;;;;;;28.15;17.25;;;16.10;99.90;;;;;;5093235;28;20024;-50
2021/04/28 09:43:16;;;;;;;24.27;15.73;;;15.90;99.90;;;;;;5075127;28;20336;-51
2021/04/28 09:45:44;;;;;;;29.17;16.70;;;15.90;99.90;;;;;;5089917;28;20035;-50
2021/04/28 09:48:17;;;;;;;25.48;15.75;;;15.80;99.90;;;;;;5074933;28;20031;-50
2021/04/28 09:50:43;;;;;;;33.05;20.00;;;15.70;99.90;;;;;;5090089;28;20041;-48
2021/04/28 09:53:08;;;;;;;31.92;20.77;;;15.90;99.90;;;;;;5075271;28;20085;-50
2021/04/28 09:55:47;;;;;;;37.28;21.48;;;16.10;99.90;;;;;;5072827;28;20036;-48
2021/04/28 09:58:13;;;;;;;37.08;19.88;;;16.00;99.90;;;;;;5090123;28;20361;-50
2021/04/28 10:00:40;;;;;;;37.45;20.48;;;16.00;99.90;;;;;;5075076;28;20170;-48
2021/04/28 10:03:08;;;;;;;33.50;19.95;;;15.90;99.90;;;;;;5074387;28;20066;-48
2021/04/28 10:05:36;;;;;;;35.28;20.75;;;15.80;99.90;;;;;;5074770;28;20071;-48
2021/04/28 10:08:23;;;;;;;34.22;19.90;;;16.10;99.90;;;;;;5075035;28;20333;-48
2021/04/28 10:10:52;;;;;;;30.15;19.35;;;16.00;99.90;;;;;;5074473;28;20471;-50
2021/04/28 10:13:18;;;;;;;32.70;20.60;;;16.20;99.90;;;;;;5074247;28;20363;-49
2021/04/28 10:15:45;;;;;;;31.13;19.08;;;;;;;;;;5074603;28;20475;-51
2021/04/28 10:18:12;;;;;;;32.00;19.85;;;16.30;99.90;;;;;;5091524;28;20078;-51
2021/04/28 10:20:41;;;;;;;33.45;20.80;;;16.50;99.90;;;;;;5094822;28;20030;-51
2021/04/28 10:23:09;;;;;;;33.13;21.05;;;16.60;99.90;;;;;;5094370;28;20466;-50
2021/04/28 10:25:36;;;;;;;36.28;20.58;;;16.50;99.90;;;;;;5058731;28;20422;-48
2021/04/28 10:28:05;;;;;;;31.63;20.02;;;16.70;99.90;;;;;;5109527;28;20050;-50
2021/04/28 10:30:33;;;;;;;28.95;19.35;;;;;;;;;;5094961;28;20059;-51
2021/04/28 10:32:59;;;;;;;26.98;18.67;;;16.70;99.90;;;;;;5094221;28;20534;-51
2021/04/28 10:35:28;;;;;;;33.85;20.35;;;;;;;;;;5094566;28;20034;-50
2021/04/28 10:37:54;;;;;;;36.15;19.52;;;17.00;99.90;;;;;;5093877;28;20498;-50
2021/04/28 10:40:23;;;;;;;30.92;20.50;;;17.10;99.90;;;;;;5094391;28;20055;-49
2021/04/28 10:42:50;;;;;;;34.88;20.80;;;17.40;99.90;;;;;;5094284;28;20059;-50
2021/04/28 10:45:18;;;;;;;37.85;21.63;;;17.40;99.90;;;;;;5093709;28;20040;-50
2021/04/28 10:47:47;;;;;;;35.15;22.10;;;17.30;99.90;;;;;;5090885;28;20051;-51
2021/04/28 10:50:37;;;;;;;30.48;20.38;;;17.40;99.90;;;;;;5093375;28;20353;-50
2021/04/28 10:53:08;;;;;;;33.25;20.15;;;17.50;99.90;;;;;;5091298;28;20081;-51
2021/04/28 10:55:44;;;;;;;41.00;22.00;;;17.30;99.90;;;;;;5094124;28;20478;-49
2021/04/28 10:58:32;;;;;;;34.65;20.30;;;17.40;99.90;;;;;;5093650;28;20398;-50
2021/04/28 11:01:01;;;;;;;35.70;20.27;;;17.20;99.90;;;;;;5093967;28;20032;-49
2021/04/28 11:03:32;;;;;;;37.17;22.10;;;17.20;99.90;;;;;;5094046;28;20023;-50
2021/04/28 11:09:08;;;;;;;40.40;22.13;;;;;;;;;;5086418;28;20441;-50
2021/04/28 11:11:36;;;;;;;39.33;22.23;;;;;;;;;;5093585;28;20050;-49
2021/04/28 11:14:15;;;;;;;35.20;22.13;;;;;;;;;;5090449;28;20048;-49
2021/04/28 11:16:43;;;;;;;38.47;22.90;;;;;;;;;;5093523;28;20049;-51
2021/04/28 11:19:33;;;;;;;38.35;23.27;;;18.00;99.90;;;;;;5093119;28;20048;-50
2021/04/28 11:22:21;;;;;;;37.70;21.15;;;18.00;99.90;;;;;;5093562;28;20027;-48
2021/04/28 11:25:01;;;;;;;38.65;21.20;;;17.90;99.90;;;;;;5093073;28;20367;-51
2021/04/28 11:27:44;;;;;;;35.67;21.73;;;18.10;99.90;;;;;;5093873;28;20036;-52
2021/04/28 11:30:26;;;;;;;37.17;22.25;;;18.10;99.90;;;;;;5093718;28;20027;-51
2021/04/28 11:33:14;;;;;;;;;;;18.60;99.90;;;;;;5094213;28;20036;-51
2021/04/28 11:36:06;;;;;;;31.02;20.92;;;18.80;99.90;;;;;;5108700;28;19911;-51
2021/04/28 11:38:35;;;;;;;38.30;22.35;;;18.80;99.90;;;;;;5093952;28;20032;-56
2021/04/28 11:41:10;;;;;;;37.40;22.58;;;18.80;99.90;;;;;;5093570;28;20033;-52
2021/04/28 11:43:48;;;;;;;37.83;22.40;;;18.80;99.90;;;;;;5093857;28;20028;-53
2021/04/28 11:46:19;;;;;;;40.28;24.45;;;18.60;99.90;;;;;;5093269;28;20440;-56
2021/04/28 11:48:51;;;;;;;42.30;23.60;;;18.50;99.90;;;;;;5108508;28;20119;-54
2021/04/28 11:51:21;;;;;;;36.38;23.05;;;18.60;99.90;;;;;;5108426;28;20330;-49
2021/04/28 11:53:51;;;;;;;35.97;22.50;;;18.90;99.90;;;;;;5093445;28;20355;-54
2021/04/28 11:56:32;;;;;;;39.03;23.73;;;18.80;99.90;;;;;;5093772;28;20474;-54
2021/04/28 11:59:00;;;;;;;41.50;25.70;;;18.70;99.90;;;;;;5093940;28;20049;-56
2021/04/28 12:01:31;;;;;;;42.72;26.30;;;18.80;99.90;;;;;;5093528;28;20034;-51
2021/04/28 12:04:08;;;;;;;36.87;25.30;;;18.90;99.90;;;;;;5093682;28;20024;-55
2021/04/28 12:06:46;;;;;;;51.38;30.58;;;19.10;99.90;;;;;;5093542;28;20040;-55
2021/04/28 12:09:25;;;;;;;44.75;27.90;;;18.70;99.90;;;;;;5093418;28;20024;-49
2021/04/28 12:12:19;;;;;;;36.45;23.35;;;18.60;99.90;;;;;;5108311;28;20036;-50
2021/04/28 12:14:45;;;;;;;47.05;25.88;;;18.50;99.90;;;;;;5093433;28;20123;-54
2021/04/28 12:17:11;;;;;;;44.92;26.73;;;18.30;99.90;;;;;;5093213;28;20503;-54
2021/04/28 12:19:37;;;;;;;42.55;25.25;;;;;;;;;;5108235;28;20119;-51
2021/04/28 12:22:08;;;;;;;41.15;26.98;;;18.20;99.90;;;;;;5092930;28;20020;-51
2021/04/28 12:24:43;;;;;;;41.95;26.92;;;18.30;99.90;;;;;;5107981;28;20036;-51
2021/04/28 12:27:43;;;;;;;52.40;28.65;;;18.50;99.90;;;;;;5093047;28;20123;-55
2021/04/28 12:30:32;;;;;;;56.30;26.48;;;18.50;99.90;;;;;;5050499;28;20029;-56
2021/04/28 12:32:58;;;;;;;44.88;27.30;;;18.10;99.90;;;;;;5018168;28;20060;-53
2021/04/28 12:35:25;;;;;;;99.45;39.50;;;18.00;99.90;;;;;;5051419;28;20106;-53
2021/04/28 12:38:11;;;;;;;64.00;30.63;;;17.80;99.90;;;;;;5004625;28;20060;-56
2021/04/28 12:41:01;;;;;;;66.55;33.45;;;17.80;99.90;;;;;;5054128;28;20047;-54
2021/04/28 12:43:33;;;;;;;44.80;25.38;;;17.90;99.90;;;;;;4962408;28;20458;-51